createdAt,value
2022-10-18T00:01:36.114Z,102481.28
2022-10-18T00:04:05.766Z,102497.81
2022-10-18T00:06:36.153Z,102496.94
2022-10-18T00:09:07.275Z,102497.31
2022-10-18T00:11:36.998Z,102494.16
2022-10-18T00:14:06.471Z,102497.28
2022-10-18T00:16:35.726Z,102495.69
2022-10-18T00:19:05.046Z,102497.75
2022-10-18T00:21:34.432Z,102494.41
2022-10-18T00:24:03.802Z,102489.03
2022-10-18T00:26:33.492Z,102486.56
2022-10-18T00:29:05.455Z,102490.25
2022-10-18T00:31:39.550Z,102490.31
2022-10-18T00:34:15.056Z,102475.78
2022-10-18T00:36:46.050Z,102474.38
2022-10-18T00:39:21.835Z,102480.06
2022-10-18T00:41:52.352Z,102487.25
2022-10-18T00:44:21.605Z,102481.50
2022-10-18T00:46:52.139Z,102472.97
2022-10-18T00:49:25.120Z,102484.28
2022-10-18T00:52:10.703Z,102481.88
2022-10-18T00:54:44.119Z,102486.75
2022-10-18T00:57:14.060Z,102485.31
2022-10-18T00:59:45.347Z,102478.94
2022-10-18T01:02:15.099Z,102487.78
2022-10-18T01:04:44.468Z,102486.94
2022-10-18T01:07:22.559Z,102485.25
2022-10-18T01:10:03.087Z,102490.25
2022-10-18T01:12:53.783Z,102491.69
2022-10-18T01:15:33.242Z,102484.50
2022-10-18T01:18:14.643Z,102498.53
2022-10-18T01:21:02.642Z,102492.06
2022-10-18T01:24:10.812Z,102500.00
2022-10-18T01:26:52.107Z,102501.19
2022-10-18T01:29:50.984Z,102497.59
2022-10-18T01:32:27.621Z,102492.69
2022-10-18T01:35:07.775Z,102490.25
2022-10-18T01:37:38.972Z,102498.59
2022-10-18T01:40:10.522Z,102493.72
2022-10-18T01:42:39.865Z,102491.75
2022-10-18T01:45:11.035Z,102495.13
2022-10-18T01:47:40.463Z,102496.72
2022-10-18T01:50:10.061Z,102500.69
2022-10-18T01:52:49.839Z,102485.13
2022-10-18T01:55:20.169Z,102504.41
2022-10-18T01:58:23.097Z,102495.59
2022-10-18T02:00:57.379Z,102494.41
2022-10-18T02:03:32.120Z,102501.66
2022-10-18T02:06:10.883Z,102495.94
2022-10-18T02:08:46.921Z,102498.03
2022-10-18T02:11:18.238Z,102497.69
2022-10-18T02:13:59.149Z,102492.84
2022-10-18T02:16:47.979Z,102490.25
2022-10-18T02:19:52.842Z,102495.22
2022-10-18T02:22:23.361Z,102491.00
2022-10-18T02:24:57.327Z,102485.81
2022-10-18T02:27:27.193Z,102486.66
2022-10-18T02:29:56.954Z,102490.13
2022-10-18T02:32:37.254Z,102476.66
2022-10-18T02:35:26.608Z,102500.19
2022-10-18T02:37:57.815Z,102489.53
2022-10-18T02:40:28.513Z,102484.69
2022-10-18T02:43:00.042Z,102499.31
2022-10-18T02:45:29.741Z,102495.34
2022-10-18T02:47:58.991Z,102491.25
2022-10-18T02:50:30.279Z,102494.59
2022-10-18T02:52:59.688Z,102497.19
2022-10-18T02:58:18.170Z,102503.19
2022-10-18T03:00:47.447Z,102508.41
2022-10-18T03:03:16.683Z,102483.97
2022-10-18T03:05:45.928Z,102498.53
2022-10-18T03:08:15.167Z,102501.38
2022-10-18T03:10:47.316Z,102491.88
2022-10-18T03:13:16.943Z,102499.97
2022-10-18T03:15:46.378Z,102503.13
2022-10-18T03:18:15.628Z,102492.84
2022-10-18T03:20:45.518Z,102495.22
2022-10-18T03:23:15.073Z,102502.25
2022-10-18T03:25:46.424Z,102497.97
2022-10-18T03:28:15.944Z,102493.22
2022-10-18T03:30:45.202Z,102486.72
2022-10-18T03:33:14.532Z,102497.00
2022-10-18T03:35:43.861Z,102500.38
2022-10-18T03:38:13.127Z,102506.09
2022-10-18T03:40:42.390Z,102504.34
2022-10-18T03:43:11.715Z,102498.94
2022-10-18T03:45:40.986Z,102505.34
2022-10-18T03:48:10.925Z,102512.56
2022-10-18T03:50:40.176Z,102513.44
2022-10-18T03:53:09.500Z,102502.44
2022-10-18T03:55:40.372Z,102511.09
2022-10-18T03:58:09.780Z,102513.88
2022-10-18T04:00:39.559Z,102523.19
2022-10-18T04:03:09.475Z,102509.28
2022-10-18T04:05:41.310Z,102505.22
2022-10-18T04:08:10.608Z,102487.41
2022-10-18T04:10:41.360Z,102505.13
2022-10-18T04:13:10.898Z,102503.91
2022-10-18T04:15:40.608Z,102510.81
2022-10-18T04:18:09.906Z,102507.22
2022-10-18T04:20:39.342Z,102500.72
2022-10-18T04:23:08.610Z,102502.75
2022-10-18T04:25:37.923Z,102498.03
2022-10-18T04:28:07.511Z,102508.78
2022-10-18T04:30:36.794Z,102500.38
2022-10-18T04:33:06.123Z,102496.25
2022-10-18T04:35:35.366Z,102494.84
2022-10-18T04:38:04.649Z,102498.84
2022-10-18T04:40:33.987Z,102498.41
2022-10-18T04:43:03.439Z,102503.25
2022-10-18T04:45:32.735Z,102495.94
2022-10-18T04:48:04.799Z,102503.63
2022-10-18T04:50:34.097Z,102515.09
2022-10-18T04:53:03.416Z,102503.81
2022-10-18T04:55:32.799Z,102513.06
2022-10-18T04:58:05.015Z,102511.78
2022-10-18T05:00:39.119Z,102510.28
2022-10-18T05:03:09.860Z,102497.38
2022-10-18T05:06:00.267Z,102502.13
2022-10-18T05:08:28.565Z,102506.81
2022-10-18T05:10:58.013Z,102519.34
2022-10-18T05:13:29.981Z,102509.94
2022-10-18T05:15:59.648Z,102510.69
2022-10-18T05:18:29.163Z,102510.69
2022-10-18T05:20:58.817Z,102508.72
2022-10-18T05:23:29.552Z,102516.38
2022-10-18T05:26:04.130Z,102516.44
2022-10-18T05:28:39.725Z,102514.91
2022-10-18T05:31:11.364Z,102521.81
2022-10-18T05:33:40.807Z,102523.81
2022-10-18T05:36:10.740Z,102527.00
2022-10-18T05:38:45.568Z,102517.25
2022-10-18T05:41:15.714Z,102522.94
2022-10-18T05:43:45.015Z,102515.63
2022-10-18T05:46:15.622Z,102524.97
2022-10-18T05:48:46.710Z,102526.97
2022-10-18T05:51:16.006Z,102536.91
2022-10-18T05:53:45.335Z,102518.19
2022-10-18T05:56:14.613Z,102551.91
2022-10-18T05:58:45.318Z,102553.53
2022-10-18T06:01:14.561Z,102547.78
2022-10-18T06:03:43.843Z,102551.16
2022-10-18T06:06:15.432Z,102548.03
2022-10-18T06:08:46.034Z,102548.94
2022-10-18T06:11:18.178Z,102567.66
2022-10-18T06:13:52.038Z,102558.00
2022-10-18T06:16:27.358Z,102562.03
2022-10-18T06:19:00.856Z,102558.72
2022-10-18T06:21:30.269Z,102557.50
2022-10-18T06:24:01.715Z,102558.00
2022-10-18T06:26:31.184Z,102558.09
2022-10-18T06:29:00.549Z,102564.16
2022-10-18T06:31:29.985Z,102558.81
2022-10-18T06:34:01.010Z,102561.31
2022-10-18T06:36:31.502Z,102563.78
2022-10-18T06:39:00.906Z,102562.84
2022-10-18T06:41:30.203Z,102564.72
2022-10-18T06:44:17.253Z,102581.47
2022-10-18T06:46:48.281Z,102583.53
2022-10-18T06:49:19.311Z,102587.69
2022-10-18T06:51:48.837Z,102582.38
2022-10-18T06:54:19.091Z,102591.16
2022-10-18T06:56:48.638Z,102593.06
2022-10-18T06:59:18.313Z,102607.38
2022-10-18T07:01:47.640Z,102607.84
2022-10-18T07:04:16.971Z,102607.44
2022-10-18T07:06:46.235Z,102614.28
2022-10-18T07:09:15.572Z,102617.22
2022-10-18T07:11:44.873Z,102625.38
2022-10-18T07:14:16.420Z,102627.06
2022-10-18T07:16:45.874Z,102623.44
2022-10-18T07:19:15.198Z,102629.50
2022-10-18T07:21:44.684Z,102630.38
2022-10-18T07:24:14.068Z,102641.28
2022-10-18T07:26:43.298Z,102640.44
2022-10-18T07:29:14.758Z,102641.66
2022-10-18T07:31:44.278Z,102645.28
2022-10-18T07:34:16.063Z,102646.81
2022-10-18T07:36:45.772Z,102654.50
2022-10-18T07:39:15.440Z,102656.88
2022-10-18T07:41:45.462Z,102656.78
2022-10-18T07:44:15.270Z,102664.09
2022-10-18T07:46:45.240Z,102669.78
2022-10-18T07:49:15.002Z,102668.16
2022-10-18T07:51:44.653Z,102671.34
2022-10-18T07:54:14.875Z,102689.22
2022-10-18T07:56:45.930Z,102685.13
2022-10-18T07:59:15.816Z,102665.69
2022-10-18T08:01:45.774Z,102681.94
2022-10-18T08:04:16.478Z,102688.75
2022-10-18T08:06:46.589Z,102700.06
2022-10-18T08:09:16.373Z,102690.69
2022-10-18T08:11:45.985Z,102699.28
2022-10-18T08:14:15.427Z,102712.31
2022-10-18T08:16:44.694Z,102722.44
2022-10-18T08:19:14.018Z,102721.53
2022-10-18T08:21:43.279Z,102712.41
2022-10-18T08:24:12.521Z,102720.03
2022-10-18T08:26:42.056Z,102724.38
2022-10-18T08:29:31.707Z,102720.97
2022-10-18T08:32:01.356Z,102715.69
2022-10-18T08:34:30.705Z,102716.50
2022-10-18T08:36:59.992Z,102722.22
2022-10-18T08:39:29.582Z,102736.72
2022-10-18T08:42:20.048Z,102735.78
2022-10-18T08:44:54.378Z,102725.38
2022-10-18T08:47:28.295Z,102735.09
2022-10-18T08:50:03.847Z,102734.00
2022-10-18T08:52:53.375Z,102733.13
2022-10-18T08:55:41.077Z,102726.91
2022-10-18T08:58:36.883Z,102742.91
2022-10-18T09:01:15.690Z,102740.63
2022-10-18T09:04:08.470Z,102745.44
2022-10-18T09:06:56.466Z,102750.41
2022-10-18T09:09:41.008Z,102742.38
2022-10-18T09:12:35.630Z,102742.00
2022-10-18T09:15:25.923Z,102739.53
2022-10-18T09:18:10.139Z,102752.03
2022-10-18T09:20:57.949Z,102753.19
2022-10-18T09:24:08.563Z,102746.44
2022-10-18T09:26:47.529Z,102758.06
2022-10-18T09:29:32.178Z,102761.50
2022-10-18T09:32:33.648Z,102745.25
2022-10-18T09:35:26.462Z,102756.97
2022-10-18T09:38:05.559Z,102762.94
2022-10-18T09:40:40.188Z,102758.81
2022-10-18T09:43:14.901Z,102755.81
2022-10-18T09:45:47.591Z,102768.84
2022-10-18T09:48:24.368Z,102763.94
2022-10-18T09:51:17.740Z,102755.13
2022-10-18T09:54:08.620Z,102754.06
2022-10-18T09:57:01.059Z,102752.50
2022-10-18T09:59:50.424Z,102762.91
2022-10-18T10:02:23.496Z,102760.69
2022-10-18T10:04:54.335Z,102760.41
2022-10-18T10:07:31.173Z,102767.75
2022-10-18T10:10:16.867Z,102767.31
2022-10-18T10:12:46.357Z,102766.50
2022-10-18T10:15:31.264Z,102759.28
2022-10-18T10:18:25.386Z,102762.16
2022-10-18T10:21:01.887Z,102760.53
2022-10-18T10:23:48.131Z,102761.06
2022-10-18T10:26:33.395Z,102762.16
2022-10-18T10:29:02.830Z,102751.56
2022-10-18T10:31:37.590Z,102760.28
2022-10-18T10:34:17.478Z,102751.53
2022-10-18T10:36:55.154Z,102761.59
2022-10-18T10:39:26.915Z,102774.28
2022-10-18T10:41:59.413Z,102774.47
2022-10-18T10:44:35.419Z,102772.59
2022-10-18T10:47:05.169Z,102781.97
2022-10-18T10:49:52.730Z,102777.41
2022-10-18T10:52:28.270Z,102773.22
2022-10-18T10:55:16.846Z,102789.22
2022-10-18T10:57:53.866Z,102791.84
2022-10-18T11:00:39.930Z,102790.00
2022-10-18T11:03:30.171Z,102793.97
2022-10-18T11:06:02.017Z,102799.69
2022-10-18T11:08:38.873Z,102796.28
2022-10-18T11:11:08.168Z,102788.69
2022-10-18T11:14:13.249Z,102796.72
2022-10-18T11:17:06.916Z,102799.50
2022-10-18T11:19:45.489Z,102789.84
2022-10-18T11:22:22.594Z,102782.06
2022-10-18T11:24:51.941Z,102779.41
2022-10-18T11:27:30.213Z,102784.50
2022-10-18T11:30:17.251Z,102788.97
2022-10-18T11:33:13.068Z,102781.91
2022-10-18T11:36:11.722Z,102789.31
2022-10-18T11:38:53.239Z,102785.41
2022-10-18T11:41:33.110Z,102782.88
2022-10-18T11:44:12.364Z,102786.13
2022-10-18T11:46:57.182Z,102772.13
2022-10-18T11:49:43.112Z,102792.09
2022-10-18T11:52:41.355Z,102783.78
2022-10-18T11:55:27.721Z,102787.09
2022-10-18T11:58:27.253Z,102787.34
2022-10-18T12:01:06.297Z,102778.84
2022-10-18T12:03:57.640Z,102775.91
2022-10-18T12:06:33.051Z,102773.09
2022-10-18T12:09:05.545Z,102764.16
2022-10-18T12:11:55.483Z,102777.56
2022-10-18T12:14:33.411Z,102771.63
2022-10-18T12:17:39.761Z,102776.97
2022-10-18T12:20:00.896Z,102780.44
2022-10-18T12:22:37.879Z,102768.47
2022-10-18T12:25:08.534Z,102759.19
2022-10-18T12:30:55.263Z,102759.56
2022-10-18T12:33:31.277Z,102770.81
2022-10-18T12:36:33.294Z,102764.06
2022-10-18T12:39:05.798Z,102761.28
2022-10-18T12:41:37.683Z,102759.56
2022-10-18T12:44:22.644Z,102755.78
2022-10-18T12:46:58.193Z,102730.09
2022-10-18T12:49:42.605Z,102752.81
2022-10-18T12:52:26.263Z,102744.41
2022-10-18T12:55:16.925Z,102756.03
2022-10-18T12:57:55.877Z,102756.84
2022-10-18T13:00:34.144Z,102759.25
2022-10-18T13:03:12.529Z,102747.09
2022-10-18T13:06:05.703Z,102743.88
2022-10-18T13:08:46.049Z,102753.69
2022-10-18T13:11:15.260Z,102747.44
2022-10-18T13:13:53.534Z,102748.25
2022-10-18T13:16:25.798Z,102743.88
2022-10-18T13:18:57.122Z,102747.00
2022-10-18T13:21:38.124Z,102752.50
2022-10-18T13:24:14.848Z,102747.66
2022-10-18T13:27:18.159Z,102745.84
2022-10-18T13:30:12.746Z,102746.66
2022-10-18T13:32:54.163Z,102751.06
2022-10-18T13:35:47.066Z,102744.06
2022-10-18T13:38:32.193Z,102741.22
2022-10-18T13:41:07.601Z,102746.25
2022-10-18T13:44:24.994Z,102746.75
2022-10-18T13:46:54.203Z,102742.63
2022-10-18T13:49:41.938Z,102746.38
2022-10-18T13:52:29.842Z,102749.34
2022-10-18T13:55:31.056Z,102737.44
2022-10-18T13:58:34.346Z,102750.47
2022-10-18T14:01:28.510Z,102752.28
2022-10-18T14:04:26.878Z,102750.41
2022-10-18T14:07:02.652Z,102755.50
2022-10-18T14:09:44.374Z,102751.69
2022-10-18T14:12:26.593Z,102758.00
2022-10-18T14:15:07.957Z,102753.56
2022-10-18T14:17:53.877Z,102748.38
2022-10-18T14:20:31.029Z,102756.88
2022-10-18T14:23:08.165Z,102768.75
2022-10-18T14:25:40.303Z,102771.81
2022-10-18T14:28:21.747Z,102763.22
2022-10-18T14:31:06.580Z,102759.09
2022-10-18T14:33:43.539Z,102768.41
2022-10-18T14:36:25.797Z,102757.25
2022-10-18T14:39:00.372Z,102752.66
2022-10-18T14:41:32.771Z,102752.94
2022-10-18T14:44:19.589Z,102755.53
2022-10-18T14:46:52.284Z,102758.38
2022-10-18T14:49:23.140Z,102757.16
2022-10-18T14:51:58.780Z,102760.00
2022-10-18T14:54:35.504Z,102762.50
2022-10-18T14:57:06.036Z,102749.44
2022-10-18T14:59:42.363Z,102760.00
2022-10-18T15:02:25.586Z,102754.97
2022-10-18T15:05:00.357Z,102757.84
2022-10-18T15:07:31.911Z,102758.28
2022-10-18T15:10:04.108Z,102757.19
2022-10-18T15:12:37.044Z,102761.75
2022-10-18T15:15:21.164Z,102764.72
2022-10-18T15:17:52.144Z,102759.91
2022-10-18T15:20:26.596Z,102750.91
2022-10-18T15:22:56.215Z,102749.75
2022-10-18T15:25:35.897Z,102751.94
2022-10-18T15:28:05.234Z,102760.25
2022-10-18T15:30:43.385Z,102762.56
2022-10-18T15:33:25.003Z,102764.88
2022-10-18T15:35:55.610Z,102765.75
2022-10-18T15:38:36.271Z,102765.53
2022-10-18T15:41:26.343Z,102754.84
2022-10-18T15:44:13.253Z,102761.59
2022-10-18T15:46:44.086Z,102757.50
2022-10-18T15:49:47.486Z,102759.19
2022-10-18T15:52:45.805Z,102761.75
2022-10-18T15:55:47.899Z,102770.03
2022-10-18T15:58:39.205Z,102762.94
2022-10-18T16:01:16.420Z,102764.31
2022-10-18T16:03:46.841Z,102762.50
2022-10-18T16:06:18.592Z,102762.69
2022-10-18T16:08:50.430Z,102760.75
2022-10-18T16:11:26.340Z,102767.47
2022-10-18T16:13:57.997Z,102763.13
2022-10-18T16:16:31.691Z,102760.78
2022-10-18T16:19:01.092Z,102759.28
2022-10-18T16:21:39.073Z,102762.63
2022-10-18T16:24:09.031Z,102761.94
2022-10-18T16:26:38.949Z,102771.94
2022-10-18T16:29:08.767Z,102766.78
2022-10-18T16:31:38.142Z,102772.28
2022-10-18T16:34:10.824Z,102766.00
2022-10-18T16:36:40.373Z,102762.13
2022-10-18T16:39:17.923Z,102780.94
2022-10-18T16:41:48.228Z,102780.28
2022-10-18T16:44:19.262Z,102778.38
2022-10-18T16:46:52.481Z,102785.41
2022-10-18T16:49:26.206Z,102788.03
2022-10-18T16:51:56.588Z,102787.28
2022-10-18T16:54:26.227Z,102787.84
2022-10-18T16:56:55.563Z,102789.97
2022-10-18T16:59:29.737Z,102794.16
2022-10-18T17:02:01.595Z,102782.88
2022-10-18T17:04:30.958Z,102807.38
2022-10-18T17:07:00.632Z,102801.81
2022-10-18T17:09:29.906Z,102798.69
2022-10-18T17:11:59.192Z,102806.47
2022-10-18T17:14:30.815Z,102810.56
2022-10-18T17:17:00.144Z,102806.19
2022-10-18T17:19:30.671Z,102805.44
2022-10-18T17:22:02.575Z,102811.19
2022-10-18T17:24:32.188Z,102806.44
2022-10-18T17:27:01.545Z,102812.16
2022-10-18T17:29:30.844Z,102808.56
2022-10-18T17:32:00.139Z,102808.56
2022-10-18T17:34:32.219Z,102813.88
2022-10-18T17:37:04.832Z,102814.72
2022-10-18T17:39:35.016Z,102817.56
2022-10-18T17:42:04.438Z,102819.66
2022-10-18T17:44:33.795Z,102832.63
2022-10-18T17:47:03.127Z,102842.75
2022-10-18T17:49:32.623Z,102841.53
2022-10-18T17:52:06.915Z,102847.63
2022-10-18T17:54:36.477Z,102846.41
2022-10-18T17:57:05.798Z,102845.97
2022-10-18T17:59:35.083Z,102852.88
2022-10-18T18:02:04.404Z,102851.25
2022-10-18T18:04:33.690Z,102865.00
2022-10-18T18:07:04.488Z,102854.47
2022-10-18T18:09:34.399Z,102861.75
2022-10-18T18:12:03.891Z,102860.13
2022-10-18T18:14:33.200Z,102857.69
2022-10-18T18:17:03.977Z,102864.16
2022-10-18T18:19:33.866Z,102858.47
2022-10-18T18:22:04.828Z,102852.41
2022-10-18T18:24:34.665Z,102862.53
2022-10-18T18:27:03.951Z,102859.25
2022-10-18T18:29:33.314Z,102869.34
2022-10-18T18:32:03.430Z,102874.56
2022-10-18T18:34:32.774Z,102869.72
2022-10-18T18:37:02.123Z,102868.47
2022-10-18T18:39:35.737Z,102880.97
2022-10-18T18:42:06.319Z,102875.66
2022-10-18T18:44:36.597Z,102874.44
2022-10-18T18:47:10.880Z,102878.47
2022-10-18T18:49:42.380Z,102868.34
2022-10-18T18:52:11.696Z,102866.69
2022-10-18T18:54:40.987Z,102868.69
2022-10-18T18:57:10.237Z,102862.59
2022-10-18T18:59:39.498Z,102872.72
2022-10-18T19:02:09.291Z,102862.56
2022-10-18T19:04:39.406Z,102859.72
2022-10-18T19:07:08.679Z,102866.19
2022-10-18T19:09:39.162Z,102862.13
2022-10-18T19:12:08.627Z,102854.81
2022-10-18T19:14:37.867Z,102862.84
2022-10-18T19:17:07.992Z,102861.16
2022-10-18T19:19:39.511Z,102864.38
2022-10-18T19:22:10.267Z,102868.41
2022-10-18T19:24:39.874Z,102861.94
2022-10-18T19:27:12.511Z,102864.34
2022-10-18T19:29:43.903Z,102860.69
2022-10-18T19:32:16.846Z,102866.78
2022-10-18T19:34:49.927Z,102865.59
2022-10-18T19:37:19.351Z,102854.19
2022-10-18T19:39:48.782Z,102869.19
2022-10-18T19:42:22.618Z,102869.19
2022-10-18T19:45:00.838Z,102877.63
2022-10-18T19:47:30.112Z,102876.38
2022-10-18T19:49:59.710Z,102873.94
2022-10-18T19:52:29.020Z,102876.34
2022-10-18T19:54:58.390Z,102871.47
2022-10-18T19:57:27.657Z,102878.31
2022-10-18T19:59:57.808Z,102871.41
2022-10-18T20:02:27.640Z,102872.13
2022-10-18T20:04:56.901Z,102880.53
2022-10-18T20:07:26.320Z,102863.09
2022-10-18T20:09:55.559Z,102876.91
2022-10-18T20:12:24.795Z,102875.69
2022-10-18T20:14:54.085Z,102878.50
2022-10-18T20:17:23.458Z,102868.38
2022-10-18T20:19:52.746Z,102877.28
2022-10-18T20:22:22.009Z,102863.13
2022-10-18T20:24:51.256Z,102880.97
2022-10-18T20:27:20.522Z,102874.56
2022-10-18T20:29:49.799Z,102864.81
2022-10-18T20:32:19.076Z,102871.25
2022-10-18T20:34:48.332Z,102880.91
2022-10-18T20:37:17.600Z,102873.66
2022-10-18T20:39:46.868Z,102877.66
2022-10-18T20:42:16.104Z,102872.78
2022-10-18T20:44:47.090Z,102870.25
2022-10-18T20:47:16.344Z,102881.97
2022-10-18T20:49:45.622Z,102877.53
2022-10-18T20:52:14.914Z,102882.38
2022-10-18T20:54:44.138Z,102874.72
2022-10-18T20:57:13.359Z,102880.78
2022-10-18T20:59:42.669Z,102877.13
2022-10-18T21:02:15.040Z,102868.19
2022-10-18T21:04:44.264Z,102850.66
2022-10-18T21:07:13.533Z,102861.50
2022-10-18T21:09:42.759Z,102862.31
2022-10-18T21:15:01.184Z,102868.22
2022-10-18T21:17:30.514Z,102858.94
2022-10-18T21:20:01.044Z,102866.22
2022-10-18T21:22:30.539Z,102835.97
2022-10-18T21:24:59.912Z,102846.91
2022-10-18T21:27:29.216Z,102859.41
2022-10-18T21:29:58.584Z,102860.50
2022-10-18T21:32:28.148Z,102854.41
2022-10-18T21:34:58.286Z,102856.75
2022-10-18T21:37:27.662Z,102849.50
2022-10-18T21:39:56.990Z,102848.66
2022-10-18T21:42:26.328Z,102852.69
2022-10-18T21:44:55.560Z,102847.81
2022-10-18T21:47:24.810Z,102843.34
2022-10-18T21:49:54.174Z,102840.88
2022-10-18T21:52:23.447Z,102838.78
2022-10-18T21:54:53.627Z,102845.16
2022-10-18T21:57:23.012Z,102841.06
2022-10-18T21:59:52.299Z,102835.81
2022-10-18T22:02:21.638Z,102841.09
2022-10-18T22:04:50.890Z,102834.59
2022-10-18T22:07:20.352Z,102849.13
2022-10-18T22:09:49.633Z,102837.84
2022-10-18T22:12:18.878Z,102837.06
2022-10-18T22:14:48.305Z,102852.06
2022-10-18T22:17:17.955Z,102847.56
2022-10-18T22:19:47.360Z,102844.25
2022-10-18T22:22:16.596Z,102832.47
2022-10-18T22:24:45.858Z,102833.25
2022-10-18T22:27:15.189Z,102842.13
2022-10-18T22:29:44.459Z,102841.69
2022-10-18T22:32:13.718Z,102837.56
2022-10-18T22:34:43.097Z,102828.94
2022-10-18T22:37:12.375Z,102850.16
2022-10-18T22:39:41.772Z,102850.84
2022-10-18T22:42:11.139Z,102847.47
2022-10-18T22:44:40.453Z,102848.66
2022-10-18T22:47:09.704Z,102849.00
2022-10-18T22:49:39.003Z,102846.50
2022-10-18T22:52:08.434Z,102845.63
2022-10-18T22:54:37.708Z,102847.13
2022-10-18T22:57:07.016Z,102848.78
2022-10-18T22:59:36.270Z,102854.47
2022-10-18T23:02:05.579Z,102843.19
2022-10-18T23:04:35.050Z,102852.47
2022-10-18T23:07:04.348Z,102850.38
2022-10-18T23:09:33.700Z,102846.34
2022-10-18T23:12:02.973Z,102845.38
2022-10-18T23:14:32.248Z,102843.59
2022-10-18T23:17:01.495Z,102848.31
2022-10-18T23:19:30.767Z,102841.00
2022-10-18T23:21:59.989Z,102853.09
2022-10-18T23:24:29.235Z,102841.38
2022-10-18T23:26:58.567Z,102845.31
2022-10-18T23:29:27.856Z,102841.19
2022-10-18T23:31:57.098Z,102845.63
2022-10-18T23:34:26.492Z,102843.25
2022-10-18T23:36:55.779Z,102838.38
2022-10-18T23:39:25.031Z,102838.22
2022-10-18T23:41:54.316Z,102843.00
2022-10-18T23:44:23.584Z,102843.72
2022-10-18T23:46:52.816Z,102850.56
2022-10-18T23:49:22.079Z,102842.13
2022-10-18T23:51:51.355Z,102850.25
2022-10-18T23:54:20.590Z,102858.69
2022-10-18T23:56:49.913Z,102851.72
2022-10-18T23:59:19.208Z,102845.66
